Terminal Aerodrome Forecast
Issued by NWS

Home | Current Version | Previous Version | Text Only | Print | Product List | Glossary On
Versions: 1 2 3 4 5 6 7 8 9 10 11 12
000
FTUS45 KGGW 281100 RRA
TAFSDY
TAF
KSDY 281142Z 2812/2912 VRB03KT 1/2SM FG OVC005
     FM281300 20006KT P6SM SKC
     FM282000 26012KT P6SM SKC
     FM290300 30010KT P6SM SCT100
      AMD LTD TO CLD VIS AND WIND=

USA.gov is the U.S. government's official web portal to all federal, state and local government web resources and services.